createdAt,value
2018-08-30T00:00:21.881Z,37.10
2018-08-30T00:01:21.916Z,36.80
2018-08-30T00:02:21.954Z,36.20
2018-08-30T00:03:21.988Z,37.10
2018-08-30T00:04:22.028Z,34.90
2018-08-30T00:05:22.876Z,38.90
2018-08-30T00:06:22.110Z,37.10
2018-08-30T00:07:22.149Z,37.50
2018-08-30T00:08:22.189Z,37.50
2018-08-30T00:09:22.228Z,38.40
2018-08-30T00:10:22.271Z,36.60
2018-08-30T00:11:22.313Z,38.20
2018-08-30T00:12:22.350Z,38.80
2018-08-30T00:13:22.391Z,40.10
2018-08-30T00:14:22.431Z,37.40
2018-08-30T00:15:22.473Z,36.40
2018-08-30T00:16:22.512Z,37.40
2018-08-30T00:17:22.555Z,39.60
2018-08-30T00:18:22.592Z,39.40
2018-08-30T00:19:22.633Z,37.50
2018-08-30T00:20:22.679Z,37.60
2018-08-30T00:21:22.716Z,35.50
2018-08-30T00:22:22.755Z,38.00
2018-08-30T00:23:22.804Z,35.60
2018-08-30T00:24:22.836Z,35.50
2018-08-30T00:25:22.875Z,38.20
2018-08-30T00:26:22.917Z,36.30
2018-08-30T00:27:22.958Z,38.00
2018-08-30T00:28:22.999Z,37.50
2018-08-30T00:29:23.037Z,37.80
2018-08-30T00:30:23.077Z,31.50
2018-08-30T00:31:23.149Z,33.30
2018-08-30T00:32:23.157Z,36.60
2018-08-30T00:33:23.199Z,35.30
2018-08-30T00:34:23.239Z,33.90
2018-08-30T00:35:23.281Z,36.50
2018-08-30T00:36:23.321Z,37.20
2018-08-30T00:37:23.363Z,35.30
2018-08-30T00:38:23.401Z,35.90
2018-08-30T00:39:23.443Z,36.00
2018-08-30T00:40:23.482Z,40.00
2018-08-30T00:41:23.661Z,41.00
2018-08-30T00:42:23.574Z,39.40
2018-08-30T00:43:23.602Z,37.20
2018-08-30T00:44:23.643Z,37.80
2018-08-30T00:45:23.683Z,38.30
2018-08-30T00:46:23.730Z,36.70
2018-08-30T00:47:23.766Z,40.00
2018-08-30T00:48:23.804Z,39.40
2018-08-30T00:49:23.846Z,37.80
2018-08-30T00:50:23.893Z,39.00
2018-08-30T00:51:23.934Z,40.30
2018-08-30T00:52:23.964Z,36.40
2018-08-30T00:53:24.006Z,35.80
2018-08-30T00:54:24.048Z,36.20
2018-08-30T00:55:24.087Z,41.90
2018-08-30T00:56:24.127Z,38.20
2018-08-30T00:57:24.167Z,37.40
2018-08-30T00:58:24.208Z,39.00
2018-08-30T00:59:24.247Z,38.40
2018-08-30T01:00:24.288Z,37.60
2018-08-30T01:01:24.336Z,38.60
2018-08-30T01:02:24.377Z,40.20
2018-08-30T01:03:24.409Z,38.70
2018-08-30T01:04:24.451Z,38.30
2018-08-30T01:05:24.492Z,36.80
2018-08-30T01:06:24.530Z,35.50
2018-08-30T01:07:24.572Z,35.40
2018-08-30T01:08:24.611Z,36.60
2018-08-30T01:09:24.660Z,35.50
2018-08-30T01:10:24.694Z,34.20
2018-08-30T01:11:24.733Z,34.40
2018-08-30T01:12:24.785Z,34.20
2018-08-30T01:13:24.813Z,32.90
2018-08-30T01:14:24.855Z,37.60
2018-08-30T01:15:24.895Z,36.50
2018-08-30T01:16:24.935Z,39.10
2018-08-30T01:17:24.975Z,40.50
2018-08-30T01:18:25.115Z,36.90
2018-08-30T01:19:25.057Z,36.70
2018-08-30T01:20:25.097Z,36.00
2018-08-30T01:21:25.137Z,33.80
2018-08-30T01:22:25.179Z,32.70
2018-08-30T01:23:25.218Z,37.90
2018-08-30T01:24:25.258Z,34.40
2018-08-30T01:25:25.301Z,36.50
2018-08-30T01:26:25.337Z,35.40
2018-08-30T01:27:25.379Z,36.90
2018-08-30T01:28:25.417Z,36.00
2018-08-30T01:29:25.457Z,35.30
2018-08-30T01:30:25.499Z,37.00
2018-08-30T01:31:25.539Z,35.50
2018-08-30T01:32:25.588Z,41.20
2018-08-30T01:33:25.619Z,38.40
2018-08-30T01:34:25.660Z,35.40
2018-08-30T01:35:25.700Z,39.70
2018-08-30T01:36:25.739Z,44.00
2018-08-30T01:37:25.780Z,40.00
2018-08-30T01:38:25.821Z,40.70
2018-08-30T01:39:25.868Z,39.00
2018-08-30T01:40:25.902Z,41.80
2018-08-30T01:41:25.942Z,42.80
2018-08-30T01:42:25.983Z,43.50
2018-08-30T01:43:26.023Z,46.20
2018-08-30T01:44:26.068Z,40.20
2018-08-30T01:45:26.103Z,40.90
2018-08-30T01:46:26.147Z,40.60
2018-08-30T01:47:26.186Z,41.20
2018-08-30T01:48:26.228Z,41.60
2018-08-30T01:49:26.263Z,39.70
2018-08-30T01:50:26.304Z,38.80
2018-08-30T01:51:26.346Z,36.70
2018-08-30T01:52:26.386Z,40.20
2018-08-30T01:53:26.434Z,36.50
2018-08-30T01:54:26.620Z,34.80
2018-08-30T01:55:26.507Z,37.20
2018-08-30T01:56:26.546Z,39.60
2018-08-30T01:57:26.589Z,39.50
2018-08-30T01:58:26.630Z,40.60
2018-08-30T01:59:26.669Z,41.00
2018-08-30T02:00:26.711Z,42.70
2018-08-30T02:01:26.748Z,40.10
2018-08-30T02:02:26.789Z,39.40
2018-08-30T02:03:26.829Z,38.70
2018-08-30T02:04:26.869Z,40.10
2018-08-30T02:05:26.909Z,39.20
2018-08-30T02:06:26.952Z,39.00
2018-08-30T02:07:26.989Z,40.70
2018-08-30T02:08:27.029Z,40.90
2018-08-30T02:09:27.069Z,40.40
2018-08-30T02:10:27.111Z,37.40
2018-08-30T02:11:27.157Z,38.00
2018-08-30T02:12:27.190Z,33.30
2018-08-30T02:13:27.233Z,37.40
2018-08-30T02:14:27.273Z,38.10
2018-08-30T02:15:27.315Z,36.80
2018-08-30T02:16:27.356Z,34.50
2018-08-30T02:17:27.394Z,36.30
2018-08-30T02:18:27.442Z,33.90
2018-08-30T02:19:27.480Z,35.10
2018-08-30T02:20:27.516Z,32.40
2018-08-30T02:21:27.562Z,30.60
2018-08-30T02:22:27.596Z,31.10
2018-08-30T02:23:27.647Z,28.70
2018-08-30T02:24:27.675Z,32.30
2018-08-30T02:25:27.716Z,31.20
2018-08-30T02:26:27.756Z,28.00
2018-08-30T02:27:27.796Z,28.70
2018-08-30T02:28:27.836Z,31.20
2018-08-30T02:29:27.877Z,31.50
2018-08-30T02:30:27.921Z,32.70
2018-08-30T02:31:27.959Z,33.00
2018-08-30T02:32:27.996Z,34.30
2018-08-30T02:33:28.040Z,31.80
2018-08-30T02:34:28.081Z,36.80
2018-08-30T02:35:28.122Z,38.40
2018-08-30T02:36:28.162Z,36.60
2018-08-30T02:37:28.199Z,39.20
2018-08-30T02:38:28.240Z,39.60
2018-08-30T02:39:28.279Z,39.80
2018-08-30T02:40:28.319Z,45.10
2018-08-30T02:41:28.361Z,43.70
2018-08-30T02:42:28.402Z,45.20
2018-08-30T02:43:28.443Z,47.90
2018-08-30T02:44:28.486Z,53.00
2018-08-30T02:45:28.521Z,50.10
2018-08-30T02:46:28.564Z,53.70
2018-08-30T02:47:28.611Z,47.10
2018-08-30T02:48:28.641Z,57.50
2018-08-30T02:49:28.687Z,50.70
2018-08-30T02:50:28.722Z,52.90
2018-08-30T02:51:28.763Z,52.90
2018-08-30T02:52:28.805Z,58.60
2018-08-30T02:53:28.844Z,59.30
2018-08-30T02:54:28.883Z,57.40
2018-08-30T02:55:28.924Z,56.00
2018-08-30T02:56:28.964Z,55.20
2018-08-30T02:57:29.003Z,53.70
2018-08-30T02:58:29.043Z,57.90
2018-08-30T02:59:29.084Z,55.30
2018-08-30T03:00:29.125Z,58.10
2018-08-30T03:01:29.166Z,60.00
2018-08-30T03:02:29.207Z,63.20
2018-08-30T03:03:29.246Z,56.00
2018-08-30T03:04:29.286Z,59.90
2018-08-30T03:05:29.326Z,59.80
2018-08-30T03:06:29.366Z,62.90
2018-08-30T03:07:29.460Z,61.60
2018-08-30T03:08:29.448Z,59.60
2018-08-30T03:09:29.487Z,61.50
2018-08-30T03:10:29.530Z,65.00
2018-08-30T03:11:29.568Z,65.20
2018-08-30T03:12:29.607Z,64.30
2018-08-30T03:13:29.646Z,60.70
2018-08-30T03:14:29.687Z,62.80
2018-08-30T03:15:29.728Z,65.60
2018-08-30T03:16:29.767Z,66.50
2018-08-30T03:17:29.806Z,60.10
2018-08-30T03:18:29.848Z,63.70
2018-08-30T03:19:29.889Z,69.30
2018-08-30T03:20:29.926Z,61.60
2018-08-30T03:21:29.975Z,66.40
2018-08-30T03:22:30.008Z,65.10
2018-08-30T03:23:30.047Z,69.90
2018-08-30T03:24:30.086Z,65.60
2018-08-30T03:25:30.128Z,71.80
2018-08-30T03:26:30.167Z,64.50
2018-08-30T03:27:30.210Z,64.00
2018-08-30T03:28:30.247Z,67.30
2018-08-30T03:29:30.287Z,70.00
2018-08-30T03:30:30.508Z,62.30
2018-08-30T03:31:30.368Z,58.20
2018-08-30T03:32:30.411Z,60.80
2018-08-30T03:33:30.456Z,62.30
2018-08-30T03:34:30.486Z,67.90
2018-08-30T03:35:30.528Z,64.70
2018-08-30T03:36:30.568Z,64.20
2018-08-30T03:37:30.621Z,67.00
2018-08-30T03:38:30.660Z,70.00
2018-08-30T03:39:30.686Z,73.80
2018-08-30T03:40:30.728Z,68.20
2018-08-30T03:41:30.769Z,66.70
2018-08-30T03:42:30.807Z,72.90
2018-08-30T03:43:30.847Z,73.80
2018-08-30T03:44:30.887Z,65.50
2018-08-30T03:45:30.925Z,67.00
2018-08-30T03:46:30.970Z,63.90
2018-08-30T03:47:31.009Z,60.30
2018-08-30T03:48:31.054Z,63.50
2018-08-30T03:49:31.085Z,68.10
2018-08-30T03:50:31.127Z,69.50
2018-08-30T03:51:31.190Z,69.10
2018-08-30T03:52:31.207Z,64.80
2018-08-30T03:53:31.245Z,68.60
2018-08-30T03:54:31.286Z,65.90
2018-08-30T03:55:31.330Z,66.30
2018-08-30T03:56:31.364Z,62.30
2018-08-30T03:57:31.408Z,66.20
2018-08-30T03:58:31.446Z,67.60
2018-08-30T03:59:31.492Z,62.50
2018-08-30T04:00:31.525Z,60.90
2018-08-30T04:01:31.565Z,63.20
2018-08-30T04:02:31.606Z,61.40
2018-08-30T04:03:31.646Z,62.80
2018-08-30T04:04:31.686Z,61.90
2018-08-30T04:05:31.725Z,63.80
2018-08-30T04:06:31.766Z,62.80
2018-08-30T04:07:31.808Z,57.30
2018-08-30T04:08:31.844Z,61.50
2018-08-30T04:09:31.884Z,62.40
2018-08-30T04:10:31.924Z,57.20
2018-08-30T04:11:31.966Z,58.30
2018-08-30T04:12:32.005Z,59.90
2018-08-30T04:13:32.130Z,62.70
2018-08-30T04:14:32.088Z,63.50
2018-08-30T04:15:32.175Z,64.30
2018-08-30T04:16:32.166Z,57.30
2018-08-30T04:17:32.203Z,59.30
2018-08-30T04:18:32.246Z,59.30
2018-08-30T04:19:32.295Z,54.60
2018-08-30T04:20:32.324Z,50.80
2018-08-30T04:21:32.364Z,49.00
2018-08-30T04:22:32.414Z,48.40
2018-08-30T04:23:32.444Z,50.60
2018-08-30T04:24:32.484Z,49.20
2018-08-30T04:25:32.523Z,45.90
2018-08-30T04:26:32.564Z,41.50
2018-08-30T04:27:32.605Z,32.70
2018-08-30T04:28:32.642Z,33.80
2018-08-30T04:29:32.684Z,30.10
2018-08-30T04:30:32.724Z,30.90
2018-08-30T04:31:32.858Z,25.80
2018-08-30T04:32:32.804Z,20.20
2018-08-30T04:33:32.841Z,22.00
2018-08-30T04:34:32.884Z,19.20
2018-08-30T04:35:32.921Z,15.60
2018-08-30T04:36:32.960Z,16.10
2018-08-30T04:37:32.999Z,12.30
2018-08-30T04:38:33.040Z,10.10
2018-08-30T04:39:33.082Z,8.90
2018-08-30T04:40:33.119Z,9.70
2018-08-30T04:41:33.161Z,8.10
2018-08-30T04:42:33.239Z,6.90
2018-08-30T04:43:33.242Z,6.60
2018-08-30T04:44:33.280Z,4.70
2018-08-30T04:45:33.317Z,4.20
2018-08-30T04:46:33.361Z,4.40
2018-08-30T04:47:33.401Z,4.50
2018-08-30T04:48:33.438Z,4.10
2018-08-30T04:49:33.476Z,3.90
2018-08-30T04:50:33.662Z,3.80
2018-08-30T04:51:33.557Z,3.90
2018-08-30T04:52:33.606Z,3.90
2018-08-30T04:53:33.634Z,4.40
2018-08-30T04:54:33.678Z,3.30
2018-08-30T04:55:33.721Z,3.40
2018-08-30T04:56:33.751Z,3.60
2018-08-30T04:57:33.796Z,3.30
2018-08-30T04:58:33.833Z,3.10
2018-08-30T04:59:33.872Z,3.30
2018-08-30T05:00:33.911Z,3.20
2018-08-30T05:01:33.959Z,3.00
2018-08-30T05:02:33.988Z,2.70
2018-08-30T05:03:34.028Z,2.30
2018-08-30T05:04:34.065Z,2.50
2018-08-30T05:05:34.112Z,3.20
2018-08-30T05:06:34.145Z,2.90
2018-08-30T05:07:34.195Z,2.20
2018-08-30T05:08:34.224Z,2.10
2018-08-30T05:09:34.265Z,2.00
2018-08-30T05:10:34.302Z,1.90
2018-08-30T05:11:34.355Z,2.10
2018-08-30T05:12:34.382Z,2.60
2018-08-30T05:13:34.425Z,2.10
2018-08-30T05:14:34.462Z,2.00
2018-08-30T05:15:34.508Z,2.60
2018-08-30T05:16:34.617Z,1.60
2018-08-30T05:17:34.579Z,1.80
2018-08-30T05:18:34.618Z,2.10
2018-08-30T05:19:34.659Z,2.40
2018-08-30T05:20:34.697Z,2.30
2018-08-30T05:21:34.745Z,2.20
2018-08-30T05:22:34.776Z,2.30
2018-08-30T05:23:34.817Z,2.10
2018-08-30T05:24:34.853Z,2.20
2018-08-30T05:25:34.892Z,2.10
2018-08-30T05:26:34.933Z,2.20
2018-08-30T05:27:34.974Z,2.20
2018-08-30T05:28:35.011Z,2.60
2018-08-30T05:29:35.050Z,1.60
2018-08-30T05:30:35.091Z,1.90
2018-08-30T05:31:35.132Z,3.50
2018-08-30T05:32:35.175Z,2.10
2018-08-30T05:33:35.206Z,2.70
2018-08-30T05:34:35.252Z,2.30
2018-08-30T05:35:35.334Z,2.50
2018-08-30T05:36:35.330Z,2.10
2018-08-30T05:37:35.364Z,2.20
2018-08-30T05:38:35.404Z,2.30
2018-08-30T05:39:35.444Z,2.40
2018-08-30T05:40:35.493Z,2.30
2018-08-30T05:41:35.522Z,5.90
2018-08-30T05:42:35.562Z,2.70
2018-08-30T05:43:35.602Z,2.50
2018-08-30T05:44:35.692Z,1.50
2018-08-30T05:45:35.677Z,2.00
2018-08-30T05:46:35.721Z,2.20
2018-08-30T05:47:35.764Z,1.70
2018-08-30T05:48:35.796Z,2.10
2018-08-30T05:49:35.834Z,1.80
2018-08-30T05:50:35.889Z,1.80
2018-08-30T05:51:35.914Z,2.10
2018-08-30T05:52:35.953Z,1.80
2018-08-30T05:53:35.991Z,1.60
2018-08-30T05:54:36.031Z,1.80
2018-08-30T05:55:36.072Z,1.80
2018-08-30T05:56:36.114Z,1.50
2018-08-30T05:57:36.149Z,1.70
2018-08-30T05:58:36.188Z,1.50
2018-08-30T05:59:36.230Z,3.00
2018-08-30T06:00:36.265Z,1.60
2018-08-30T06:01:36.305Z,2.40
2018-08-30T06:02:36.343Z,1.50
2018-08-30T06:03:36.384Z,1.40
2018-08-30T06:04:36.421Z,1.80
2018-08-30T06:05:36.464Z,1.50
2018-08-30T06:06:36.509Z,1.60
2018-08-30T06:07:36.540Z,1.90
2018-08-30T06:08:36.577Z,2.20
2018-08-30T06:09:36.618Z,1.40
2018-08-30T06:10:36.657Z,1.40
2018-08-30T06:11:36.696Z,1.40
2018-08-30T06:12:36.736Z,1.50
2018-08-30T06:13:36.810Z,1.50
2018-08-30T06:14:36.815Z,1.70
2018-08-30T06:15:36.853Z,1.70
2018-08-30T06:16:36.892Z,1.70
2018-08-30T06:17:36.935Z,2.20
2018-08-30T06:18:36.974Z,1.50
2018-08-30T06:19:37.009Z,1.40
2018-08-30T06:20:37.051Z,2.10
2018-08-30T06:21:37.087Z,2.10
2018-08-30T06:22:37.135Z,1.40
2018-08-30T06:23:37.167Z,1.50
2018-08-30T06:24:37.212Z,1.50
2018-08-30T06:25:37.244Z,1.40
2018-08-30T06:26:37.296Z,2.20
2018-08-30T06:27:37.327Z,1.50
2018-08-30T06:28:37.362Z,1.30
2018-08-30T06:29:37.400Z,2.00
2018-08-30T06:30:37.442Z,1.90
2018-08-30T06:31:37.477Z,1.60
2018-08-30T06:32:37.519Z,1.60
2018-08-30T06:33:37.554Z,1.70
2018-08-30T06:34:37.653Z,1.80
2018-08-30T06:35:37.636Z,1.50
2018-08-30T06:36:37.672Z,1.60
2018-08-30T06:37:37.720Z,1.80
2018-08-30T06:38:37.769Z,1.90
2018-08-30T06:39:37.790Z,1.60
2018-08-30T06:40:37.837Z,1.70
2018-08-30T06:41:37.875Z,1.50
2018-08-30T06:42:37.916Z,1.60
2018-08-30T06:43:37.947Z,1.60
2018-08-30T06:44:37.985Z,1.50
2018-08-30T06:45:38.025Z,1.70
2018-08-30T06:46:38.066Z,1.60
2018-08-30T06:47:38.104Z,1.60
2018-08-30T06:48:38.233Z,1.40
2018-08-30T06:49:38.182Z,1.70
2018-08-30T06:50:38.219Z,2.60
2018-08-30T06:51:38.269Z,1.60
2018-08-30T06:52:38.299Z,2.10
2018-08-30T06:53:38.337Z,2.00
2018-08-30T06:54:38.376Z,2.00
2018-08-30T06:55:38.414Z,2.40
2018-08-30T06:56:38.452Z,3.60
2018-08-30T06:57:38.492Z,2.70
2018-08-30T06:58:38.583Z,2.10
2018-08-30T06:59:38.572Z,2.70
2018-08-30T07:00:38.609Z,2.40
2018-08-30T07:01:38.650Z,2.60
2018-08-30T07:02:38.689Z,2.30
2018-08-30T07:03:38.737Z,2.30
2018-08-30T07:04:38.766Z,2.40
2018-08-30T07:05:38.807Z,2.70
2018-08-30T07:06:38.845Z,2.60
2018-08-30T07:07:38.883Z,3.30
2018-08-30T07:08:38.923Z,3.20
2018-08-30T07:09:38.961Z,2.90
2018-08-30T07:10:39.002Z,4.00
2018-08-30T07:11:39.048Z,3.70
2018-08-30T07:12:39.096Z,3.80
2018-08-30T07:13:39.119Z,3.20
2018-08-30T07:14:39.263Z,3.40
2018-08-30T07:15:39.204Z,3.90
2018-08-30T07:16:39.237Z,5.50
2018-08-30T07:17:39.275Z,4.60
2018-08-30T07:18:39.317Z,4.00
2018-08-30T07:19:39.353Z,4.30
2018-08-30T07:20:39.394Z,4.20
2018-08-30T07:21:39.431Z,3.80
2018-08-30T07:22:39.471Z,4.50
2018-08-30T07:23:39.511Z,4.30
2018-08-30T07:24:39.550Z,4.60
2018-08-30T07:25:39.588Z,5.00
2018-08-30T07:26:39.627Z,4.60
2018-08-30T07:27:39.666Z,5.00
2018-08-30T07:28:39.871Z,4.60
2018-08-30T07:29:39.746Z,5.20
2018-08-30T07:30:39.783Z,4.60
2018-08-30T07:31:39.826Z,6.20
2018-08-30T07:32:39.861Z,6.30
2018-08-30T07:33:39.904Z,5.90
2018-08-30T07:34:39.992Z,5.90
2018-08-30T07:35:39.990Z,5.60
2018-08-30T07:36:40.017Z,6.50
2018-08-30T07:37:40.065Z,7.20
2018-08-30T07:38:40.105Z,7.00
2018-08-30T07:39:40.137Z,6.60
2018-08-30T07:40:40.175Z,7.20
2018-08-30T07:41:40.213Z,8.00
2018-08-30T07:42:40.254Z,7.80
2018-08-30T07:43:40.293Z,9.00
2018-08-30T07:44:40.466Z,8.60
2018-08-30T07:45:40.370Z,8.00
2018-08-30T07:46:40.412Z,8.50
2018-08-30T07:47:40.448Z,10.40
2018-08-30T07:48:40.509Z,9.10
2018-08-30T07:49:40.528Z,10.80
2018-08-30T07:50:40.571Z,11.10
2018-08-30T07:51:40.606Z,11.70
2018-08-30T07:52:40.649Z,11.70
2018-08-30T07:53:40.684Z,11.80
2018-08-30T07:54:40.790Z,12.20
2018-08-30T07:55:40.762Z,15.00
2018-08-30T07:56:40.802Z,12.50
2018-08-30T07:57:40.839Z,14.00
2018-08-30T07:58:40.880Z,13.90
2018-08-30T07:59:40.918Z,15.90
2018-08-30T08:00:40.956Z,13.00
2018-08-30T08:01:41.001Z,15.90
2018-08-30T08:02:41.036Z,13.30
2018-08-30T08:03:41.075Z,14.50
2018-08-30T08:04:41.113Z,16.40
2018-08-30T08:05:41.153Z,15.00
2018-08-30T08:06:41.199Z,13.70
2018-08-30T08:07:41.231Z,14.10
2018-08-30T08:08:41.270Z,14.40
2018-08-30T08:09:41.308Z,17.40
2018-08-30T08:10:41.350Z,15.20
2018-08-30T08:11:41.399Z,18.50
2018-08-30T08:12:41.428Z,15.20
2018-08-30T08:13:41.466Z,16.50
2018-08-30T08:14:41.505Z,16.00
2018-08-30T08:15:41.547Z,15.70
2018-08-30T08:16:41.585Z,16.60
2018-08-30T08:17:41.624Z,17.70
2018-08-30T08:18:41.661Z,18.40
2018-08-30T08:19:41.701Z,18.30
2018-08-30T08:20:41.790Z,19.00
2018-08-30T08:21:41.780Z,20.20
2018-08-30T08:22:41.818Z,18.20
2018-08-30T08:23:41.863Z,20.40
2018-08-30T08:24:41.899Z,18.20
2018-08-30T08:25:41.934Z,18.90
2018-08-30T08:26:41.976Z,20.30
2018-08-30T08:27:42.017Z,18.30
2018-08-30T08:28:42.063Z,21.70
2018-08-30T08:29:42.093Z,20.90
2018-08-30T08:30:42.131Z,19.60
2018-08-30T08:31:42.173Z,20.00
2018-08-30T08:32:42.217Z,19.90
2018-08-30T08:33:42.261Z,17.70
2018-08-30T08:34:42.290Z,21.70
2018-08-30T08:35:42.327Z,21.20
2018-08-30T08:36:42.366Z,19.00
2018-08-30T08:37:42.407Z,18.20
2018-08-30T08:38:42.447Z,20.40
2018-08-30T08:39:42.486Z,20.30
2018-08-30T08:40:42.565Z,17.40
2018-08-30T08:41:42.719Z,18.90
2018-08-30T08:42:42.604Z,19.30
2018-08-30T08:43:42.643Z,17.70
2018-08-30T08:44:42.682Z,18.10
2018-08-30T08:45:42.729Z,19.30
2018-08-30T08:46:42.762Z,20.10
2018-08-30T08:47:42.844Z,19.90
2018-08-30T08:48:42.842Z,19.80
2018-08-30T08:49:42.891Z,19.20
2018-08-30T08:50:42.923Z,19.00
2018-08-30T08:51:42.961Z,19.90
2018-08-30T08:52:43.000Z,19.90
2018-08-30T08:53:43.047Z,19.60
2018-08-30T08:54:43.080Z,19.20
2018-08-30T08:55:43.129Z,19.40
2018-08-30T08:56:43.162Z,19.00
2018-08-30T08:57:43.202Z,20.00
2018-08-30T08:58:43.285Z,22.80
2018-08-30T08:59:43.288Z,21.10
2018-08-30T09:00:43.328Z,22.50
2018-08-30T09:01:43.359Z,19.90
2018-08-30T09:02:43.399Z,19.80
2018-08-30T09:03:43.440Z,21.00
2018-08-30T09:04:43.481Z,22.70
2018-08-30T09:05:43.521Z,20.80
2018-08-30T09:06:43.559Z,20.20
2018-08-30T09:07:43.789Z,20.20
2018-08-30T09:08:43.639Z,19.10
2018-08-30T09:09:43.678Z,19.80
2018-08-30T09:10:43.720Z,17.00
2018-08-30T09:11:43.759Z,19.50
2018-08-30T09:12:43.799Z,17.60
2018-08-30T09:13:43.841Z,19.20
2018-08-30T09:14:43.880Z,19.60
2018-08-30T09:15:43.919Z,16.40
2018-08-30T09:16:43.962Z,21.10
2018-08-30T09:17:43.999Z,19.10
2018-08-30T09:18:44.041Z,19.30
2018-08-30T09:19:44.082Z,18.40
2018-08-30T09:20:44.126Z,18.20
2018-08-30T09:21:44.163Z,17.40
2018-08-30T09:22:44.204Z,19.60
2018-08-30T09:23:44.245Z,17.60
2018-08-30T09:24:44.303Z,18.10
2018-08-30T09:25:44.326Z,21.10
2018-08-30T09:26:44.411Z,21.00
2018-08-30T09:27:44.406Z,19.50
2018-08-30T09:28:44.496Z,18.40
2018-08-30T09:29:44.486Z,20.80
2018-08-30T09:30:44.528Z,18.70
2018-08-30T09:31:44.569Z,19.50
2018-08-30T09:32:44.609Z,18.40
2018-08-30T09:33:44.698Z,18.10
2018-08-30T09:34:44.693Z,17.50
2018-08-30T09:35:44.733Z,17.50
2018-08-30T09:36:44.771Z,18.80
2018-08-30T09:37:44.815Z,19.20
2018-08-30T09:38:44.861Z,18.20
2018-08-30T09:39:44.904Z,19.20
2018-08-30T09:40:44.935Z,19.50
2018-08-30T09:41:44.976Z,20.60
2018-08-30T09:42:45.017Z,19.90
2018-08-30T09:43:45.076Z,18.60
2018-08-30T09:44:45.106Z,17.30
2018-08-30T09:45:45.140Z,17.80
2018-08-30T09:46:45.181Z,19.50
2018-08-30T09:47:45.220Z,17.60
2018-08-30T09:48:45.263Z,20.90
2018-08-30T09:49:45.354Z,18.20
2018-08-30T09:50:45.343Z,17.90
2018-08-30T09:51:45.385Z,17.70
2018-08-30T09:52:45.428Z,19.50
2018-08-30T09:53:45.468Z,17.30
2018-08-30T09:54:45.511Z,18.50
2018-08-30T09:55:45.583Z,18.70
2018-08-30T09:56:45.627Z,19.70
2018-08-30T09:57:45.631Z,17.10
2018-08-30T09:58:45.672Z,20.00
2018-08-30T09:59:45.712Z,18.90
2018-08-30T10:00:45.754Z,20.30
2018-08-30T10:01:45.794Z,18.60
2018-08-30T10:02:45.836Z,18.90
2018-08-30T10:03:45.930Z,16.70
2018-08-30T10:04:45.993Z,16.30
2018-08-30T10:05:45.974Z,17.40
2018-08-30T10:06:46.000Z,17.20
2018-08-30T10:07:46.043Z,18.60
2018-08-30T10:08:46.083Z,21.20
2018-08-30T10:09:46.124Z,16.10
2018-08-30T10:10:46.170Z,17.30
2018-08-30T10:11:46.204Z,17.00
2018-08-30T10:12:46.246Z,16.80
2018-08-30T10:13:46.287Z,17.80
2018-08-30T10:14:46.329Z,17.40
2018-08-30T10:15:46.425Z,16.60
2018-08-30T10:16:46.412Z,16.70
2018-08-30T10:17:46.451Z,17.60
2018-08-30T10:18:46.502Z,15.70
2018-08-30T10:19:46.535Z,18.40
2018-08-30T10:20:46.575Z,16.70
2018-08-30T10:21:46.616Z,17.70
2018-08-30T10:22:46.659Z,15.70
2018-08-30T10:23:46.697Z,15.70
2018-08-30T10:24:46.737Z,15.60
2018-08-30T10:25:46.779Z,16.20
2018-08-30T10:26:46.836Z,16.10
2018-08-30T10:27:46.860Z,14.10
2018-08-30T10:28:46.902Z,11.70
2018-08-30T10:29:46.945Z,11.90
2018-08-30T10:30:46.983Z,11.30
2018-08-30T10:31:47.126Z,11.20
2018-08-30T10:32:47.066Z,11.50
2018-08-30T10:33:47.105Z,11.40
2018-08-30T10:34:47.150Z,11.10
2018-08-30T10:35:47.187Z,11.10
2018-08-30T10:36:47.280Z,12.00
2018-08-30T10:37:47.273Z,12.10
2018-08-30T10:38:47.309Z,12.40
2018-08-30T10:39:47.350Z,11.90
2018-08-30T10:40:47.389Z,12.30
2018-08-30T10:41:47.436Z,12.30
2018-08-30T10:42:47.526Z,12.40
2018-08-30T10:43:47.510Z,10.80
2018-08-30T10:44:47.556Z,12.00
2018-08-30T10:45:47.593Z,12.20
2018-08-30T10:46:47.639Z,11.60
2018-08-30T10:47:47.674Z,12.70
2018-08-30T10:48:47.727Z,12.20
2018-08-30T10:49:47.774Z,13.90
2018-08-30T10:50:47.796Z,12.50
2018-08-30T10:51:47.837Z,12.50
2018-08-30T10:52:47.876Z,12.40
2018-08-30T10:53:47.921Z,12.50
2018-08-30T10:54:47.957Z,11.60
2018-08-30T10:55:48.009Z,12.20
2018-08-30T10:56:48.038Z,13.40
2018-08-30T10:57:48.079Z,13.40
2018-08-30T10:58:48.121Z,13.90
2018-08-30T10:59:48.161Z,12.50
2018-08-30T11:00:48.202Z,11.90
2018-08-30T11:01:48.260Z,13.00
2018-08-30T11:02:48.282Z,13.50
2018-08-30T11:03:48.459Z,13.50
2018-08-30T11:04:48.363Z,14.30
2018-08-30T11:05:48.405Z,16.10
2018-08-30T11:06:48.470Z,14.80
2018-08-30T11:07:48.486Z,14.70
2018-08-30T11:08:48.526Z,13.60
2018-08-30T11:09:48.592Z,15.60
2018-08-30T11:10:48.608Z,15.60
2018-08-30T11:11:48.653Z,14.20
2018-08-30T11:12:48.776Z,13.80
2018-08-30T11:13:48.728Z,14.00
2018-08-30T11:14:48.770Z,13.30
2018-08-30T11:15:48.808Z,13.70
2018-08-30T11:16:48.851Z,13.60
2018-08-30T11:17:48.891Z,12.50
2018-08-30T11:18:48.933Z,11.90
2018-08-30T11:19:48.973Z,13.00
2018-08-30T11:20:49.114Z,10.60
2018-08-30T11:21:49.056Z,11.90
2018-08-30T11:22:49.094Z,11.50
2018-08-30T11:23:49.156Z,11.70
2018-08-30T11:24:49.184Z,11.90
2018-08-30T11:25:49.217Z,14.00
2018-08-30T11:26:49.257Z,10.90
2018-08-30T11:27:49.299Z,12.40
2018-08-30T11:28:49.339Z,13.60
2018-08-30T11:29:49.380Z,12.50
2018-08-30T11:30:49.420Z,13.70
2018-08-30T11:31:49.459Z,13.20
2018-08-30T11:32:49.515Z,14.10
2018-08-30T11:33:49.543Z,12.40
2018-08-30T11:34:49.603Z,14.00
2018-08-30T11:35:49.629Z,13.70
2018-08-30T11:36:49.666Z,13.50
2018-08-30T11:37:49.709Z,14.90
2018-08-30T11:38:49.747Z,14.00
2018-08-30T11:39:49.788Z,14.10
2018-08-30T11:40:49.826Z,15.50
2018-08-30T11:41:49.903Z,15.30
2018-08-30T11:42:49.911Z,14.40
2018-08-30T11:43:49.950Z,14.60
2018-08-30T11:44:49.991Z,15.60
2018-08-30T11:45:50.031Z,14.80
2018-08-30T11:46:50.081Z,13.90
2018-08-30T11:47:50.114Z,13.50
2018-08-30T11:48:50.155Z,14.00
2018-08-30T11:49:50.196Z,15.30
2018-08-30T11:50:50.238Z,14.10
2018-08-30T11:51:50.278Z,13.70
2018-08-30T11:52:50.319Z,16.00
2018-08-30T11:53:50.358Z,15.00
2018-08-30T11:54:50.405Z,15.70
2018-08-30T11:55:50.442Z,15.30
2018-08-30T11:56:50.480Z,13.70
2018-08-30T11:57:50.522Z,13.20
2018-08-30T11:58:50.565Z,14.60
2018-08-30T11:59:50.614Z,16.90
2018-08-30T12:00:50.684Z,15.10
2018-08-30T12:01:50.688Z,13.60
2018-08-30T12:02:50.729Z,13.70
2018-08-30T12:03:50.773Z,14.50
2018-08-30T12:04:50.811Z,15.20
2018-08-30T12:05:50.853Z,13.80
2018-08-30T12:06:50.942Z,15.50
2018-08-30T12:07:50.964Z,13.40
2018-08-30T12:08:50.975Z,13.40
2018-08-30T12:09:51.017Z,12.50
2018-08-30T12:10:51.188Z,15.70
2018-08-30T12:11:51.104Z,13.40
2018-08-30T12:12:51.191Z,14.10
2018-08-30T12:13:51.181Z,12.70
2018-08-30T12:14:51.225Z,14.70
2018-08-30T12:15:51.266Z,14.60
2018-08-30T12:16:51.307Z,14.50
2018-08-30T12:17:51.352Z,14.00
2018-08-30T12:18:51.471Z,14.40
2018-08-30T12:19:51.433Z,13.70
2018-08-30T12:20:51.495Z,12.40
2018-08-30T12:21:51.517Z,13.40
2018-08-30T12:22:51.556Z,13.90
2018-08-30T12:23:51.598Z,14.00
2018-08-30T12:24:51.638Z,12.90
2018-08-30T12:25:51.680Z,13.20
2018-08-30T12:26:51.732Z,13.70
2018-08-30T12:27:51.768Z,13.30
2018-08-30T12:28:51.862Z,11.50
2018-08-30T12:29:51.850Z,11.90
2018-08-30T12:30:51.939Z,12.30
2018-08-30T12:31:52.045Z,12.80
2018-08-30T12:32:52.022Z,13.20
2018-08-30T12:33:52.083Z,13.70
2018-08-30T12:34:52.129Z,12.30
2018-08-30T12:35:52.478Z,14.20
2018-08-30T12:36:52.207Z,12.30
2018-08-30T12:37:52.240Z,12.80
2018-08-30T12:38:52.273Z,12.40
2018-08-30T12:39:52.384Z,13.70
2018-08-30T12:40:52.312Z,13.40
2018-08-30T12:41:52.548Z,12.90
2018-08-30T12:42:52.532Z,12.90
2018-08-30T12:43:52.641Z,14.00
2018-08-30T12:44:52.508Z,11.50
2018-08-30T12:45:52.535Z,12.70
2018-08-30T12:46:52.616Z,13.90
2018-08-30T12:47:52.616Z,11.70
2018-08-30T12:48:52.691Z,12.00
2018-08-30T12:49:52.746Z,11.30
2018-08-30T12:50:52.831Z,11.00
2018-08-30T12:51:52.940Z,11.20
2018-08-30T12:52:52.934Z,12.30
2018-08-30T12:53:53.030Z,9.90
2018-08-30T12:54:53.108Z,10.80
2018-08-30T12:55:53.092Z,11.60
2018-08-30T12:56:53.132Z,10.70
2018-08-30T12:57:53.181Z,10.80
2018-08-30T12:58:53.279Z,11.50